Time;durP1;ratioP1;P1;durP2;ratioP2;P2;SDS_P1;SDS_P2;PMS_P1;PMS_P2;Temp;Humidity;BMP_temperature;BMP_pressure;BME280_temperature;BME280_humidity;BME280_pressure;Samples;Min_cycle;Max_cycle;Signal;HPM_P1;HPM_P2
2022/04/13 00:00:13;;;;;;;11.35;6.43;;;;;;;;;;5106890;28;20031;-77
2022/04/13 00:02:39;;;;;;;10.38;6.20;;;;;;;;;;5107961;27;20125;-77
2022/04/13 00:05:06;;;;;;;8.77;5.80;;;;;;;;;;5109485;27;20184;-77
2022/04/13 00:07:32;;;;;;;11.50;6.55;;;;;;;;;;5088776;27;20076;-76
2022/04/13 00:09:58;;;;;;;11.48;6.40;;;;;;;;;;5113141;27;20490;-76
2022/04/13 00:12:24;;;;;;;8.45;6.28;;;;;;;;;;5095250;27;20035;-76
2022/04/13 00:14:50;;;;;;;12.15;7.18;;;;;;;;;;5108235;27;20336;-77
2022/04/13 00:17:16;;;;;;;9.68;6.82;;;;;;;;;;5110576;27;20133;-77
2022/04/13 00:19:42;;;;;;;10.32;7.18;;;;;;;;;;5093129;27;20036;-77
2022/04/13 00:22:08;;;;;;;12.05;6.32;;;;;;;;;;5108350;27;20448;-77
2022/04/13 00:24:34;;;;;;;10.50;6.50;;;;;;;;;;5110067;27;20081;-76
2022/04/13 00:27:00;;;;;;;11.02;6.88;;;;;;;;;;5107502;27;20031;-77
2022/04/13 00:29:30;;;;;;;10.27;6.43;;;;;;;;;;5106027;27;20050;-77
2022/04/13 00:31:57;;;;;;;10.27;6.82;;;;;;;;;;5108999;27;20050;-77
2022/04/13 00:34:22;;;;;;;9.20;6.35;;;;;;;;;;5091186;27;20498;-77
2022/04/13 00:36:48;;;;;;;10.88;6.80;;;;;;;;;;5106012;27;20047;-77
2022/04/13 00:39:14;;;;;;;11.13;6.55;;;;;;;;;;5107024;28;20051;-77
2022/04/13 00:41:40;;;;;;;9.85;6.13;;;;;;;;;;5089668;27;20036;-77
2022/04/13 00:44:07;;;;;;;8.80;6.07;;;;;;;;;;5105524;27;20430;-77
2022/04/13 00:46:33;;;;;;;10.52;6.80;;;;;;;;;;5107213;27;20122;-77
2022/04/13 00:49:00;;;;;;;10.80;6.43;;;;;;;;;;5089531;27;20483;-77
2022/04/13 00:51:27;;;;;;;12.25;7.60;;;;;;;;;;5105229;27;20040;-77
2022/04/13 00:53:53;;;;;;;9.80;6.45;;;;;;;;;;5107867;27;20031;-77
2022/04/13 00:56:24;;;;;;;8.88;6.38;;;;;;;;;;5105782;27;20031;-77
2022/04/13 00:58:53;;;;;;;9.98;6.65;;;;;;;;;;5090029;27;20058;-77
2022/04/13 01:01:20;;;;;;;11.90;7.32;;;;;;;;;;5105999;27;20391;-77
2022/04/13 01:03:47;;;;;;;13.95;7.22;;;;;;;;;;5104932;27;20487;-77
2022/04/13 01:06:15;;;;;;;9.45;6.70;;;;;;;;;;5106675;27;20118;-77
2022/04/13 01:08:42;;;;;;;10.20;7.03;;;;;;;;;;5105926;27;20403;-77
2022/04/13 01:11:08;;;;;;;11.40;6.97;;;;;;;;;;5104660;27;20091;-77
2022/04/13 01:13:38;;;;;;;10.50;7.03;;;;;;;;;;5106367;27;20050;-77
2022/04/13 01:16:05;;;;;;;10.93;7.07;;;;;;;;;;5089745;27;20051;-77
2022/04/13 01:18:31;;;;;;;13.65;7.25;;;;;;;;;;5104304;27;20451;-78
2022/04/13 01:20:57;;;;;;;9.55;6.70;;;;;;;;;;5105614;27;20077;-77
2022/04/13 01:23:23;;;;;;;12.80;7.65;;;;;;;;;;5089148;27;20042;-77
2022/04/13 01:25:50;;;;;;;11.32;7.18;;;;;;;;;;5104198;27;20043;-77
2022/04/13 01:28:16;;;;;;;12.27;7.00;;;;;;;;;;5105628;27;20394;-77
2022/04/13 01:30:42;;;;;;;11.43;7.15;;;;;;;;;;5088834;27;20124;-77
2022/04/13 01:33:08;;;;;;;14.38;7.20;;;;;;;;;;5104122;27;20285;-77
2022/04/13 01:35:34;;;;;;;11.57;7.25;;;;;;;;;;5106151;27;20104;-77
2022/04/13 01:38:00;;;;;;;13.35;7.45;;;;;;;;;;5105521;27;20039;-77
2022/04/13 01:40:26;;;;;;;10.38;7.13;;;;;;;;;;5103828;27;20398;-77
2022/04/13 01:42:52;;;;;;;10.30;6.40;;;;;;;;;;5106011;27;20138;-77
2022/04/13 01:45:21;;;;;;;11.02;7.40;;;;;;;;;;5105010;27;20108;-77
2022/04/13 01:47:48;;;;;;;13.15;7.25;;;;;;;;;;5103797;27;20070;-77
2022/04/13 01:50:14;;;;;;;11.85;6.97;;;;;;;;;;5105663;27;20042;-77
2022/04/13 01:52:40;;;;;;;10.57;6.63;;;;;;;;;;5104900;27;20126;-77
2022/04/13 01:55:07;;;;;;;13.48;7.13;;;;;;;;;;5103781;27;20096;-77
2022/04/13 01:57:33;;;;;;;11.85;6.60;;;;;;;;;;5105503;27;20046;-77
2022/04/13 01:59:59;;;;;;;10.70;6.97;;;;;;;;;;5087825;27;20035;-77
2022/04/13 02:02:24;;;;;;;9.93;6.65;;;;;;;;;;5104131;27;20372;-77
2022/04/13 02:04:51;;;;;;;12.32;7.47;;;;;;;;;;5088798;27;20037;-77
2022/04/13 02:07:17;;;;;;;11.32;7.18;;;;;;;;;;5104458;27;20531;-77
2022/04/13 02:09:44;;;;;;;10.38;7.22;;;;;;;;;;5103887;27;20074;-77
2022/04/13 02:12:11;;;;;;;11.20;7.15;;;;;;;;;;5105778;27;20076;-77
2022/04/13 02:14:36;;;;;;;11.05;6.85;;;;;;;;;;5104089;27;20036;-77
2022/04/13 02:17:02;;;;;;;10.07;7.30;;;;;;;;;;5098347;28;20027;-77
2022/04/13 02:19:28;;;;;;;10.52;7.30;;;;;;;;;;5077494;28;20522;-77
2022/04/13 02:21:54;;;;;;;13.43;7.45;;;;;;;;;;5094364;28;20036;-77
2022/04/13 02:24:20;;;;;;;11.52;6.85;;;;;;;;;;5077665;28;20036;-77
2022/04/13 02:26:46;;;;;;;12.18;7.07;;;;;;;;;;5077518;28;20165;-77
2022/04/13 02:29:12;;;;;;;10.38;6.80;;;;;;;;;;5094707;28;20514;-77
2022/04/13 02:31:38;;;;;;;12.07;6.93;;;;;;;;;;5094385;28;20035;-77
2022/04/13 02:34:04;;;;;;;11.10;7.47;;;;;;;;;;5077623;28;20066;-77
2022/04/13 02:36:31;;;;;;;10.27;6.80;;;;;;;;;;5094247;28;20112;-77
2022/04/13 02:38:57;;;;;;;12.48;7.30;;;;;;;;;;5094103;28;20044;-77
2022/04/13 02:41:23;;;;;;;13.55;7.57;;;;;;;;;;5094129;28;20032;-78
2022/04/13 02:43:49;;;;;;;19.42;7.10;;;;;;;;;;5077044;28;20044;-77
2022/04/13 02:46:15;;;;;;;11.45;7.78;;;;;;;;;;5077282;28;20082;-77
2022/04/13 02:48:41;;;;;;;13.20;8.40;;;;;;;;;;5077270;28;20496;-77
2022/04/13 02:51:07;;;;;;;15.60;7.72;;;;;;;;;;5094171;28;20134;-77
2022/04/13 02:53:34;;;;;;;14.00;8.10;;;;;;;;;;5077116;28;20050;-77
2022/04/13 02:56:00;;;;;;;17.23;8.77;;;;;;;;;;5094172;28;20047;-77
2022/04/13 02:58:26;;;;;;;11.98;8.73;;;;;;;;;;5076899;28;20167;-77
2022/04/13 03:00:52;;;;;;;14.07;9.35;;;;;;;;;;5077057;28;20503;-77
2022/04/13 03:03:18;;;;;;;15.65;8.68;;;;;;;;;;5093196;28;20142;-77
2022/04/13 03:05:44;;;;;;;15.20;8.57;;;;;;;;;;5076936;28;20075;-78
2022/04/13 03:08:10;;;;;;;16.40;7.97;;;;;;;;;;5093508;28;20047;-77
2022/04/13 03:10:36;;;;;;;13.05;8.25;;;;;;;;;;5077026;28;20487;-77
2022/04/13 03:13:03;;;;;;;14.00;9.02;;;;;;;;;;5092695;28;20104;-77
2022/04/13 03:15:29;;;;;;;15.55;9.07;;;;;;;;;;5075357;28;20043;-77
2022/04/13 03:17:55;;;;;;;14.70;8.65;;;;;;;;;;5092765;28;20051;-77
2022/04/13 03:20:21;;;;;;;15.35;8.70;;;;;;;;;;5076959;28;20039;-77
2022/04/13 03:22:50;;;;;;;18.77;9.52;;;;;;;;;;5076915;28;20050;-77
2022/04/13 03:25:16;;;;;;;15.68;9.63;;;;;;;;;;5076854;28;20047;-76
2022/04/13 03:27:42;;;;;;;17.40;9.73;;;;;;;;;;5076984;28;20042;-77
2022/04/13 03:30:09;;;;;;;13.98;8.43;;;;;;;;;;5077060;28;20554;-77
2022/04/13 03:32:38;;;;;;;19.10;9.05;;;;;;;;;;5076754;28;20044;-77
2022/04/13 03:35:08;;;;;;;18.73;9.40;;;;;;;;;;5076633;28;20139;-77
2022/04/13 03:37:34;;;;;;;15.43;8.88;;;;;;;;;;5076623;28;20079;-77
2022/04/13 03:40:00;;;;;;;16.50;8.63;;;;;;;;;;5093308;28;20075;-77
2022/04/13 03:42:26;;;;;;;19.13;9.77;;;;;;;;;;5076497;28;20131;-77
2022/04/13 03:44:52;;;;;;;19.23;9.60;;;;;;;;;;5093284;28;20052;-77
2022/04/13 03:47:18;;;;;;;20.60;10.43;;;;;;;;;;5076558;28;20036;-77
2022/04/13 03:49:44;;;;;;;22.48;9.57;;;;;;;;;;5093699;28;20043;-77
2022/04/13 03:52:10;;;;;;;19.60;10.70;;;;;;;;;;5076768;28;20043;-77
2022/04/13 03:54:36;;;;;;;21.52;10.68;;;;;;;;;;5076516;28;20506;-77
2022/04/13 03:57:02;;;;;;;16.75;8.93;;;;;;;;;;5076640;28;20127;-76
2022/04/13 03:59:28;;;;;;;17.88;9.80;;;;;;;;;;5093097;28;20135;-76
2022/04/13 04:01:54;;;;;;;17.73;9.35;;;;;;;;;;5091924;28;20039;-76
2022/04/13 04:04:20;;;;;;;17.88;9.35;;;;;;;;;;5091431;28;20046;-77
2022/04/13 04:06:46;;;;;;;18.40;8.73;;;;;;;;;;5092001;28;20040;-77
2022/04/13 04:09:12;;;;;;;21.73;9.27;;;;;;;;;;5091548;28;20043;-77
2022/04/13 04:11:38;;;;;;;15.02;9.02;;;;;;;;;;5092159;28;20061;-77
2022/04/13 04:14:04;;;;;;;14.77;9.55;;;;;;;;;;5094170;28;20040;-77
2022/04/13 04:16:30;;;;;;;20.00;8.23;;;;;;;;;;5080200;28;20523;-77
2022/04/13 04:18:56;;;;;;;17.70;8.55;;;;;;;;;;5096888;28;20045;-77
2022/04/13 04:21:22;;;;;;;24.67;10.02;;;;;;;;;;5080135;28;20122;-77
2022/04/13 04:23:48;;;;;;;14.40;7.97;;;;;;;;;;5097030;28;20096;-76
2022/04/13 04:26:14;;;;;;;15.27;8.77;;;;;;;;;;5096740;28;20040;-77
2022/04/13 04:28:41;;;;;;;19.42;8.23;;;;;;;;;;5080026;28;20146;-77
2022/04/13 04:31:07;;;;;;;16.83;8.57;;;;;;;;;;5096533;28;20138;-77
2022/04/13 04:33:33;;;;;;;14.15;8.15;;;;;;;;;;5079643;28;20067;-77
2022/04/13 04:35:59;;;;;;;18.40;9.32;;;;;;;;;;5080109;28;20082;-77
2022/04/13 04:38:30;;;;;;;12.75;8.20;;;;;;;;;;5079556;28;20071;-77
2022/04/13 04:40:56;;;;;;;;;;;;;;;;;;5096646;28;20546;-77
2022/04/13 04:43:22;;;;;;;16.85;8.20;;;;;;;;;;5079049;28;19974;-77
2022/04/13 04:45:48;;;;;;;20.88;8.77;;;;;;;;;;5096097;28;20407;-77
2022/04/13 04:48:14;;;;;;;17.38;9.90;;;;;;;;;;5079727;28;20404;-77
2022/04/13 04:50:40;;;;;;;17.55;9.23;;;;;;;;;;5079363;28;20044;-77
2022/04/13 04:53:06;;;;;;;11.80;8.50;;;;;;;;;;5096494;28;20040;-77
2022/04/13 04:55:32;;;;;;;16.95;9.02;;;;;;;;;;5079357;28;20172;-77
2022/04/13 04:57:58;;;;;;;22.73;11.90;;;;;;;;;;5096256;28;20108;-77
2022/04/13 05:00:24;;;;;;;19.30;10.80;;;;;;;;;;5079153;28;20048;-77
2022/04/13 05:02:51;;;;;;;18.58;9.43;;;;;;;;;;5096345;28;20141;-77
2022/04/13 05:05:18;;;;;;;15.68;8.82;;;;;;;;;;5079217;28;20043;-77
2022/04/13 05:07:44;;;;;;;19.83;10.93;;;;;;;;;;5082928;27;20168;-77
2022/04/13 05:10:10;;;;;;;16.35;9.48;;;;;;;;;;5105773;27;20039;-77
2022/04/13 05:12:43;;;;;;;17.90;10.65;;;;;;;;;;5107029;27;20475;-77
2022/04/13 05:15:09;;;;;;;16.90;9.00;;;;;;;;;;5103860;27;20062;-77
2022/04/13 05:17:37;;;;;;;17.02;9.70;;;;;;;;;;5104559;27;20126;-77
2022/04/13 05:20:03;;;;;;;16.30;9.65;;;;;;;;;;5102200;27;20035;-77
2022/04/13 05:22:29;;;;;;;19.92;10.73;;;;;;;;;;5105567;27;20046;-77
2022/04/13 05:24:55;;;;;;;18.55;9.43;;;;;;;;;;5089628;27;20039;-77
2022/04/13 05:27:21;;;;;;;18.63;10.65;;;;;;;;;;5103886;27;20067;-77
2022/04/13 05:29:47;;;;;;;20.02;10.52;;;;;;;;;;5105716;27;20039;-77
2022/04/13 05:32:15;;;;;;;22.63;12.02;;;;;;;;;;5088996;27;20085;-77
2022/04/13 05:34:40;;;;;;;23.30;11.35;;;;;;;;;;5104546;27;20475;-76
2022/04/13 05:37:06;;;;;;;18.60;10.43;;;;;;;;;;5100706;28;20043;-77
2022/04/13 05:39:35;;;;;;;21.90;10.73;;;;;;;;;;5091997;28;20040;-76
2022/04/13 05:42:00;;;;;;;19.45;11.43;;;;;;;;;;5074501;28;20042;-77
2022/04/13 05:44:26;;;;;;;18.60;10.75;;;;;;;;;;5076525;28;20052;-77
2022/04/13 05:46:52;;;;;;;20.10;10.70;;;;;;;;;;5095198;28;20086;-77
2022/04/13 05:49:18;;;;;;;22.30;11.20;;;;;;;;;;5095219;28;20035;-77
2022/04/13 05:51:44;;;;;;;21.90;11.48;;;;;;;;;;5094908;28;20491;-76
2022/04/13 05:54:11;;;;;;;18.40;10.82;;;;;;;;;;5096025;28;20193;-77
2022/04/13 05:56:37;;;;;;;21.65;12.15;;;;;;;;;;5079161;28;20039;-78
2022/04/13 05:59:03;;;;;;;25.98;11.43;;;;;;;;;;5095613;28;20044;-77
2022/04/13 06:01:29;;;;;;;18.50;10.38;;;;;;;;;;5095871;28;20040;-78
2022/04/13 06:03:55;;;;;;;18.20;11.05;;;;;;;;;;5078755;28;20399;-77
2022/04/13 06:06:25;;;;;;;15.48;10.82;;;;;;;;;;5078322;28;20184;-78
2022/04/13 06:08:51;;;;;;;20.47;11.70;;;;;;;;;;5078163;28;20118;-78
2022/04/13 06:11:17;;;;;;;25.65;11.30;;;;;;;;;;5077918;28;20127;-78
2022/04/13 06:13:43;;;;;;;19.95;9.73;;;;;;;;;;5079068;28;20049;-77
2022/04/13 06:16:09;;;;;;;22.52;11.05;;;;;;;;;;5094669;28;20438;-78
2022/04/13 06:18:35;;;;;;;21.00;11.00;;;;;;;;;;5077912;28;20039;-78
2022/04/13 06:21:01;;;;;;;21.95;11.65;;;;;;;;;;5078042;28;20050;-79
2022/04/13 06:23:27;;;;;;;20.33;9.95;;;;;;;;;;5077862;28;20043;-78
2022/04/13 06:25:53;;;;;;;19.67;10.82;;;;;;;;;;5077693;28;20084;-78
2022/04/13 06:28:19;;;;;;;17.95;10.02;;;;;;;;;;5077495;28;20046;-79
2022/04/13 06:30:45;;;;;;;20.55;10.73;;;;;;;;;;5077387;28;20426;-78
2022/04/13 06:33:11;;;;;;;17.50;10.57;;;;;;;;;;5094564;28;20130;-78
2022/04/13 06:35:37;;;;;;;19.40;10.88;;;;;;;;;;5077634;28;20040;-78
2022/04/13 06:38:03;;;;;;;23.35;11.55;;;;;;;;;;5076703;28;20467;-78
2022/04/13 06:40:29;;;;;;;17.77;10.50;;;;;;;;;;5094118;28;20118;-78
2022/04/13 06:42:56;;;;;;;18.23;11.07;;;;;;;;;;5094424;28;20039;-79
2022/04/13 06:45:22;;;;;;;16.90;10.52;;;;;;;;;;5077187;28;20046;-79
2022/04/13 06:47:48;;;;;;;20.08;11.45;;;;;;;;;;5094492;28;20403;-80
2022/04/13 06:50:14;;;;;;;19.13;10.05;;;;;;;;;;5094394;28;20048;-78
2022/04/13 06:52:40;;;;;;;20.42;11.50;;;;;;;;;;5079838;27;20038;-77
2022/04/13 06:55:09;;;;;;;24.52;11.43;;;;;;;;;;5088264;27;20050;-79
2022/04/13 06:57:37;;;;;;;16.02;10.10;;;;;;;;;;5087067;27;20418;-78
2022/04/13 07:00:04;;;;;;;19.88;10.70;;;;;;;;;;5102838;28;20035;-79
2022/04/13 07:02:30;;;;;;;18.92;9.40;;;;;;;;;;5104738;27;20574;-81
2022/04/13 07:04:56;;;;;;;18.55;10.75;;;;;;;;;;5104911;27;20088;-79
2022/04/13 07:07:22;;;;;;;14.98;9.95;;;;;;;;;;5104719;27;20554;-78
2022/04/13 07:09:48;;;;;;;21.67;10.38;;;;;;;;;;5102506;28;20035;-78
2022/04/13 07:12:14;;;;;;;16.33;9.10;;;;;;;;;;5104221;27;20541;-78
2022/04/13 07:14:41;;;;;;;19.27;10.00;;;;;;;;;;5104253;28;20036;-79
2022/04/13 07:17:08;;;;;;;16.10;10.65;;;;;;;;;;5102850;28;20035;-78
2022/04/13 07:19:34;;;;;;;15.38;9.68;;;;;;;;;;5103843;28;20079;-79
2022/04/13 07:22:01;;;;;;;20.17;10.70;;;;;;;;;;5087431;28;20499;-78
2022/04/13 07:24:27;;;;;;;17.63;9.65;;;;;;;;;;5102535;28;20035;-80
2022/04/13 07:26:53;;;;;;;15.82;9.15;;;;;;;;;;5104173;28;20053;-81
2022/04/13 07:29:19;;;;;;;17.65;10.70;;;;;;;;;;5103686;28;20089;-78
2022/04/13 07:31:45;;;;;;;17.52;10.38;;;;;;;;;;5102529;28;20043;-79
2022/04/13 07:34:11;;;;;;;14.57;8.98;;;;;;;;;;5104673;28;20483;-80
2022/04/13 07:36:37;;;;;;;16.38;13.25;;;;;;;;;;5102110;28;20038;-80
2022/04/13 07:39:04;;;;;;;16.50;13.57;;;;;;;;;;5102247;28;20134;-80
2022/04/13 07:41:30;;;;;;;18.88;14.27;;;;;;;;;;5103399;28;20042;-78
2022/04/13 07:43:57;;;;;;;18.30;12.65;;;;;;;;;;5087383;28;20055;-77
2022/04/13 07:46:27;;;;;;;16.00;12.57;;;;;;;;;;5100800;28;20499;-80
2022/04/13 07:48:53;;;;;;;15.88;12.35;;;;;;;;;;5103023;27;20051;-79
2022/04/13 07:51:19;;;;;;;13.68;11.93;;;;;;;;;;5108027;27;20441;-82
2022/04/13 07:53:45;;;;;;;14.82;11.00;;;;;;;;;;5109259;27;20070;-78
2022/04/13 07:56:11;;;;;;;14.95;10.90;;;;;;;;;;5094075;27;20077;-79
2022/04/13 07:58:37;;;;;;;14.32;10.52;;;;;;;;;;5108585;27;20039;-79
2022/04/13 08:01:03;;;;;;;14.77;9.40;;;;;;;;;;5111116;27;20032;-80
2022/04/13 08:03:29;;;;;;;12.93;9.85;;;;;;;;;;5091552;27;20502;-80
2022/04/13 08:05:55;;;;;;;12.50;9.80;;;;;;;;;;5107657;27;20083;-81
2022/04/13 08:08:21;;;;;;;13.23;10.05;;;;;;;;;;5108649;27;20041;-80
2022/04/13 08:10:47;;;;;;;12.38;9.63;;;;;;;;;;5090422;27;20043;-81
2022/04/13 08:13:13;;;;;;;13.27;10.25;;;;;;;;;;5107007;27;20035;-80
2022/04/13 08:15:39;;;;;;;12.98;10.43;;;;;;;;;;5089750;27;20526;-80
2022/04/13 08:18:05;;;;;;;13.45;10.35;;;;;;;;;;5111811;27;20498;-79
2022/04/13 08:20:31;;;;;;;13.25;11.00;;;;;;;;;;5094137;27;20043;-78
2022/04/13 08:22:57;;;;;;;13.77;7.55;;;;;;;;;;5111261;27;20486;-80
2022/04/13 08:25:23;;;;;;;16.73;12.10;;;;;;;;;;5112293;27;20414;-78
2022/04/13 08:27:49;;;;;;;17.15;11.73;;;;;;;;;;5108691;27;20062;-78
2022/04/13 08:30:15;;;;;;;15.50;12.30;;;;;;;;;;5110558;27;20042;-78
2022/04/13 08:32:42;;;;;;;17.42;12.50;;;;;;;;;;5092463;27;20051;-79
2022/04/13 08:35:10;;;;;;;18.35;12.13;;;;;;;;;;5091246;27;20451;-79
2022/04/13 08:37:37;;;;;;;14.07;11.65;;;;;;;;;;5107792;27;20053;-80
2022/04/13 08:40:03;;;;;;;14.88;8.77;;;;;;;;;;5096318;27;20031;-79
2022/04/13 08:42:37;;;;;;;13.10;8.13;;;;;;;;;;5107873;27;20515;-78
2022/04/13 08:45:12;;;;;;;14.60;11.20;;;;;;;;;;5107414;27;20042;-79
2022/04/13 08:47:43;;;;;;;9.93;6.90;;;;;;;;;;5090839;27;20047;-80
2022/04/13 08:50:12;;;;;;;16.55;12.13;;;;;;;;;;5107021;27;20044;-78
2022/04/13 08:52:39;;;;;;;12.27;7.47;;;;;;;;;;5109225;27;20452;-79
2022/04/13 08:55:09;;;;;;;16.63;11.15;;;;;;;;;;5087630;27;20036;-78
2022/04/13 08:57:37;;;;;;;11.70;6.97;;;;;;;;;;5106261;27;20038;-79
2022/04/13 09:00:06;;;;;;;14.68;10.60;;;;;;;;;;5089890;27;20092;-78
2022/04/13 09:02:40;;;;;;;13.70;9.23;;;;;;;;;;5103199;27;20039;-78
2022/04/13 09:05:16;;;;;;;13.93;8.52;;;;;;;;;;5103041;27;20467;-80
2022/04/13 09:07:42;;;;;;;11.82;8.93;;;;;;;;;;5106169;27;20028;-79
2022/04/13 09:10:12;;;;;;;10.73;7.68;;;;;;;;;;5107403;27;20024;-79
2022/04/13 09:12:39;;;;;;;9.13;6.13;;;;;;;;;;5104950;27;20425;-80
2022/04/13 09:15:05;;;;;;;14.18;9.27;;;;;;;;;;5085244;27;20036;-80
2022/04/13 09:17:31;;;;;;;12.32;8.45;;;;;;;;;;5105862;27;20118;-79
2022/04/13 09:19:58;;;;;;;14.13;9.00;;;;;;;;;;5106886;27;20122;-78
2022/04/13 09:22:24;;;;;;;10.70;8.13;;;;;;;;;;5088193;27;20043;-81
2022/04/13 09:24:51;;;;;;;9.52;7.75;;;;;;;;;;5105907;27;20042;-79
2022/04/13 09:27:18;;;;;;;13.20;8.90;;;;;;;;;;5106218;27;20031;-79
2022/04/13 09:29:44;;;;;;;10.48;8.70;;;;;;;;;;5104486;27;20431;-77
2022/04/13 09:32:10;;;;;;;11.40;7.57;;;;;;;;;;5106335;27;20039;-78
2022/04/13 09:34:36;;;;;;;11.00;7.47;;;;;;;;;;5089073;27;20036;-79
2022/04/13 09:37:02;;;;;;;12.27;7.78;;;;;;;;;;5105018;27;20050;-80
2022/04/13 09:39:28;;;;;;;11.80;8.07;;;;;;;;;;5106990;27;20057;-81
2022/04/13 09:41:54;;;;;;;12.60;6.93;;;;;;;;;;5115933;27;20047;-80
2022/04/13 09:44:21;;;;;;;8.90;5.18;;;;;;;;;;5116157;27;20055;-79
2022/04/13 09:46:47;;;;;;;9.65;6.32;;;;;;;;;;5115819;27;20440;-78
2022/04/13 09:49:12;;;;;;;8.27;5.72;;;;;;;;;;5116263;27;20992;-77
2022/04/13 09:51:39;;;;;;;8.10;5.60;;;;;;;;;;5102398;28;20040;-79
2022/04/13 09:54:12;;;;;;;9.20;5.53;;;;;;;;;;5078534;28;20039;-77
2022/04/13 09:56:39;;;;;;;6.60;3.50;;;;;;;;;;5095557;28;20168;-80
2022/04/13 09:59:05;;;;;;;6.78;5.20;;;;;;;;;;5078556;28;20044;-81
2022/04/13 10:01:33;;;;;;;7.60;5.43;;;;;;;;;;5090663;27;20087;-76
2022/04/13 10:03:59;;;;;;;8.65;6.03;;;;;;;;;;5115842;27;20087;-77
2022/04/13 10:06:28;;;;;;;7.35;5.30;;;;;;;;;;5115738;27;20082;-80
2022/04/13 10:09:00;;;;;;;5.90;4.65;;;;;;;;;;5099067;28;20047;-79
2022/04/13 10:11:25;;;;;;;5.68;3.70;;;;;;;;;;5103866;27;20050;-80
2022/04/13 10:13:51;;;;;;;8.25;5.07;;;;;;;;;;5084051;28;20039;-81
2022/04/13 10:16:17;;;;;;;6.53;3.72;;;;;;;;;;5105489;27;20154;-79
2022/04/13 10:18:57;;;;;;;8.35;5.00;;;;;;;;;;5088151;27;20043;-78
2022/04/13 10:21:43;;;;;;;7.60;5.25;;;;;;;;;;5087111;27;20035;-77
2022/04/13 10:24:24;;;;;;;7.38;5.00;;;;;;;;;;5102279;28;20071;-77
2022/04/13 10:27:15;;;;;;;7.05;3.50;;;;;;;;;;5094889;28;20062;-77
2022/04/13 10:29:42;;;;;;;7.20;5.30;;;;;;;;;;5066850;28;20051;-78
2022/04/13 10:32:12;;;;;;;8.57;5.00;;;;;;;;;;5077894;28;20046;-82
2022/04/13 10:34:39;;;;;;;5.82;4.25;;;;;;;;;;5078693;28;20400;-80
2022/04/13 10:37:06;;;;;;;9.10;5.60;;;;;;;;;;5101562;27;20125;-79
2022/04/13 10:39:32;;;;;;;8.02;5.35;;;;;;;;;;5089462;27;20062;-81
2022/04/13 10:41:58;;;;;;;8.13;5.95;;;;;;;;;;5087432;27;20046;-82
2022/04/13 10:44:30;;;;;;;11.05;6.50;;;;;;;;;;5081351;27;20051;-80
2022/04/13 10:46:59;;;;;;;10.00;4.22;;;;;;;;;;5115498;27;20043;-82
2022/04/13 10:49:29;;;;;;;6.28;5.03;;;;;;;;;;5115899;27;20057;-80
2022/04/13 10:51:56;;;;;;;9.15;3.95;;;;;;;;;;5105058;28;20039;-79
2022/04/13 10:54:25;;;;;;;6.15;3.97;;;;;;;;;;5096050;28;20050;-80
2022/04/13 10:56:56;;;;;;;7.90;6.00;;;;;;;;;;5078894;28;20476;-81
2022/04/13 10:59:33;;;;;;;7.00;4.20;;;;;;;;;;5078251;28;20471;-81
2022/04/13 11:02:04;;;;;;;8.90;6.03;;;;;;;;;;5077353;28;20074;-78
2022/04/13 11:04:32;;;;;;;9.43;4.43;;;;;;;;;;5094748;28;20074;-80
2022/04/13 11:06:58;;;;;;;9.93;5.80;;;;;;;;;;5078210;28;20130;-79
2022/04/13 11:09:27;;;;;;;7.10;4.88;;;;;;;;;;5077990;28;20054;-79
2022/04/13 11:11:55;;;;;;;11.23;6.60;;;;;;;;;;5094690;28;20083;-81
2022/04/13 11:14:21;;;;;;;8.77;6.65;;;;;;;;;;5077530;28;20086;-80
2022/04/13 11:16:48;;;;;;;7.30;4.38;;;;;;;;;;5094275;28;20042;-81
2022/04/13 11:19:14;;;;;;;10.32;6.70;;;;;;;;;;5094529;28;20075;-81
2022/04/13 11:22:03;;;;;;;10.65;6.85;;;;;;;;;;5094457;28;20036;-80
2022/04/13 11:24:35;;;;;;;7.35;4.35;;;;;;;;;;5076818;28;20032;-79
2022/04/13 11:27:02;;;;;;;8.93;5.45;;;;;;;;;;5094168;28;20040;-82
2022/04/13 11:29:36;;;;;;;7.55;5.85;;;;;;;;;;5093923;28;20519;-78
2022/04/13 11:32:02;;;;;;;8.88;5.18;;;;;;;;;;5076945;28;20179;-80
2022/04/13 11:34:35;;;;;;;8.23;5.45;;;;;;;;;;5077587;28;20062;-79
2022/04/13 11:37:03;;;;;;;8.70;5.47;;;;;;;;;;5077599;28;20047;-78
2022/04/13 11:40:07;;;;;;;7.07;4.70;;;;;;;;;;5094348;28;20127;-80
2022/04/13 11:42:36;;;;;;;7.18;5.03;;;;;;;;;;4976675;28;20563;-79
2022/04/13 11:45:02;;;;;;;7.72;4.60;;;;;;;;;;4976796;28;20100;-79
2022/04/13 11:47:45;;;;;;;4.00;2.72;;;;;;;;;;5042969;28;20074;-79
2022/04/13 11:50:14;;;;;;;8.55;4.70;;;;;;;;;;5094402;28;20031;-82
2022/04/13 11:52:48;;;;;;;6.30;3.42;;;;;;;;;;5093734;28;20432;-80
2022/04/13 11:55:17;;;;;;;6.05;3.53;;;;;;;;;;5096217;28;20048;-80
2022/04/13 11:58:02;;;;;;;5.78;3.30;;;;;;;;;;5094998;28;20043;-70
2022/04/13 12:00:41;;;;;;;4.95;3.80;;;;;;;;;;5077681;28;20071;-81
2022/04/13 12:03:13;;;;;;;5.57;2.75;;;;;;;;;;5093964;28;20050;-79
2022/04/13 12:05:40;;;;;;;7.55;4.13;;;;;;;;;;5094692;28;20047;-81
2022/04/13 12:08:32;;;;;;;4.25;3.20;;;;;;;;;;5077447;28;20229;-81
2022/04/13 12:10:58;;;;;;;5.30;3.55;;;;;;;;;;5056957;28;20055;-83
2022/04/13 12:13:25;;;;;;;3.60;2.10;;;;;;;;;;5077301;28;20039;-81
2022/04/13 12:15:55;;;;;;;4.72;2.65;;;;;;;;;;5094386;28;20092;-85
2022/04/13 12:18:22;;;;;;;4.40;1.98;;;;;;;;;;5077825;28;20044;-78
2022/04/13 12:20:49;;;;;;;5.07;2.70;;;;;;;;;;5093725;28;20036;-70
2022/04/13 12:23:22;;;;;;;4.70;1.85;;;;;;;;;;5077453;28;20487;-78
2022/04/13 12:25:49;;;;;;;4.13;3.17;;;;;;;;;;5093761;28;20067;-78
2022/04/13 12:28:15;;;;;;;6.05;2.42;;;;;;;;;;5076568;28;20070;-82
2022/04/13 12:30:42;;;;;;;5.82;3.15;;;;;;;;;;5093798;28;20126;-71
2022/04/13 12:33:21;;;;;;;3.88;2.20;;;;;;;;;;5076658;28;20040;-81
2022/04/13 12:35:48;;;;;;;10.77;3.95;;;;;;;;;;5079319;28;20044;-83
2022/04/13 12:38:21;;;;;;;8.35;3.33;;;;;;;;;;5097320;28;20043;-75
2022/04/13 12:40:47;;;;;;;9.65;4.28;;;;;;;;;;5081262;28;20051;-80
2022/04/13 12:43:25;;;;;;;10.65;4.70;;;;;;;;;;5097155;28;20636;-77
2022/04/13 12:45:51;;;;;;;9.57;6.85;;;;;;;;;;5097220;28;20042;-85
2022/04/13 12:48:17;;;;;;;7.95;4.18;;;;;;;;;;5080755;28;20044;-81
2022/04/13 12:50:54;;;;;;;6.43;4.20;;;;;;;;;;5081480;28;20051;-80
2022/04/13 12:53:20;;;;;;;10.48;3.13;;;;;;;;;;5080401;28;20048;-79
2022/04/13 12:55:56;;;;;;;8.48;3.45;;;;;;;;;;5098489;28;20047;-79
2022/04/13 12:58:22;;;;;;;4.90;2.58;;;;;;;;;;5080578;28;20079;-76
2022/04/13 13:00:52;;;;;;;5.05;1.77;;;;;;;;;;5097142;28;20118;-74
2022/04/13 13:03:19;;;;;;;2.65;1.23;;;;;;;;;;5093918;28;20040;-81
2022/04/13 13:05:45;;;;;;;3.25;2.03;;;;;;;;;;5095431;28;20431;-81
2022/04/13 13:08:11;;;;;;;3.15;1.65;;;;;;;;;;5093509;28;20054;-79
2022/04/13 13:10:37;;;;;;;4.68;2.60;;;;;;;;;;5077216;28;20074;-78
2022/04/13 13:13:13;;;;;;;3.38;1.73;;;;;;;;;;5077080;28;20035;-80
2022/04/13 13:15:40;;;;;;;4.18;1.40;;;;;;;;;;5093305;28;20503;-84
2022/04/13 13:18:07;;;;;;;6.55;2.00;;;;;;;;;;5077132;28;20407;-80
2022/04/13 13:20:33;;;;;;;4.10;1.73;;;;;;;;;;5092961;28;20082;-84
2022/04/13 13:22:59;;;;;;;2.67;1.50;;;;;;;;;;5076881;28;20035;-79
2022/04/13 13:25:25;;;;;;;2.78;1.55;;;;;;;;;;5093432;28;20283;-83
2022/04/13 13:27:54;;;;;;;7.38;2.65;;;;;;;;;;5093400;28;20506;-80
2022/04/13 13:30:21;;;;;;;2.88;1.60;;;;;;;;;;5076524;28;20286;-80
2022/04/13 13:32:48;;;;;;;4.25;1.63;;;;;;;;;;5092501;28;20445;-82
2022/04/13 13:35:15;;;;;;;3.25;1.83;;;;;;;;;;5075498;28;20035;-81
2022/04/13 13:37:45;;;;;;;4.13;1.70;;;;;;;;;;5075952;28;20042;-80
2022/04/13 13:40:11;;;;;;;;;;;;;;;;;;5093097;28;20045;-80
2022/04/13 13:42:43;;;;;;;5.30;2.30;;;;;;;;;;5075590;28;19927;-78
2022/04/13 13:45:17;;;;;;;4.72;1.83;;;;;;;;;;5076997;28;20460;-79
2022/04/13 13:47:43;;;;;;;4.07;2.30;;;;;;;;;;5093105;28;20107;-79
2022/04/13 13:50:09;;;;;;;3.17;1.48;;;;;;;;;;5095064;28;20040;-80
2022/04/13 13:52:35;;;;;;;4.82;2.35;;;;;;;;;;5095814;28;20043;-81
2022/04/13 13:55:01;;;;;;;3.90;1.35;;;;;;;;;;5077395;28;20035;-80
2022/04/13 13:57:27;;;;;;;6.50;2.35;;;;;;;;;;5076949;28;20047;-79
2022/04/13 13:59:53;;;;;;;2.40;1.40;;;;;;;;;;5092731;28;20423;-80
2022/04/13 14:02:19;;;;;;;2.70;1.40;;;;;;;;;;5076618;28;20036;-81
2022/04/13 14:04:45;;;;;;;4.72;2.20;;;;;;;;;;5078129;28;20095;-81
2022/04/13 14:07:11;;;;;;;4.22;1.85;;;;;;;;;;5076541;28;20046;-80
2022/04/13 14:09:38;;;;;;;4.45;1.55;;;;;;;;;;5094558;28;20043;-81
2022/04/13 14:12:04;;;;;;;4.47;1.83;;;;;;;;;;5094853;28;20040;-81
2022/04/13 14:14:30;;;;;;;8.20;1.90;;;;;;;;;;5094448;28;20043;-77
2022/04/13 14:16:56;;;;;;;10.55;2.20;;;;;;;;;;5094979;28;20041;-82
2022/04/13 14:19:22;;;;;;;3.45;1.67;;;;;;;;;;5092485;28;20043;-85
2022/04/13 14:21:48;;;;;;;4.38;1.77;;;;;;;;;;5093750;28;20035;-77
2022/04/13 14:24:14;;;;;;;3.33;1.48;;;;;;;;;;5076501;28;20344;-83
2022/04/13 14:26:41;;;;;;;2.97;1.48;;;;;;;;;;5076231;28;20040;-84
2022/04/13 14:29:07;;;;;;;5.18;1.45;;;;;;;;;;5093048;28;20047;-79
2022/04/13 14:31:33;;;;;;;3.92;2.03;;;;;;;;;;5075279;28;20079;-81
2022/04/13 14:34:00;;;;;;;3.30;1.55;;;;;;;;;;5091620;28;20043;-79